Time;durP1;ratioP1;P1;durP2;ratioP2;P2;SDS_P1;SDS_P2;PMS_P1;PMS_P2;Temp;Humidity;BMP_temperature;BMP_pressure;BME280_temperature;BME280_humidity;BME280_pressure;Samples;Min_cycle;Max_cycle;Signal;HPM_P1;HPM_P2
2021/07/31 00:05:33;;;;;;;;;35.75;30.75;;;;;;;;8725377;40;11002;-62
2021/07/31 00:11:36;;;;;;;;;33.50;30.75;;;;;;;;8724567;40;11561;-63
2021/07/31 00:17:38;;;;;;;;;37.25;34.50;;;;;;;;8725180;40;11382;-63
2021/07/31 00:23:40;;;;;;;;;37.33;34.00;;;;;;;;8724321;40;10523;-63
2021/07/31 00:29:42;;;;;;;;;37.75;33.25;;;;;;;;8724879;40;11250;-62
2021/07/31 00:35:44;;;;;;;;;32.25;31.25;;;;;;;;8724359;40;11025;-62
2021/07/31 00:41:46;;;;;;;;;36.00;34.00;;;;;;;;8723763;40;11007;-63
2021/07/31 00:47:49;;;;;;;;;34.67;33.33;;;;;;;;8722229;40;10797;-63
2021/07/31 00:53:53;;;;;;;;;36.67;36.33;;;;;;;;8724451;40;10463;-62
2021/07/31 00:59:55;;;;;;;;;34.00;31.67;;;;;;;;8723389;40;10559;-62
2021/07/31 01:05:58;;;;;;;;;32.75;30.50;;;;;;;;8723079;40;10937;-62
2021/07/31 01:12:02;;;;;;;;;34.67;32.33;;;;;;;;8722843;40;10249;-62
2021/07/31 01:18:05;;;;;;;;;36.33;34.33;;;;;;;;8722610;40;10119;-61
2021/07/31 01:24:10;;;;;;;;;37.00;36.33;;;;;;;;8723191;40;10854;-61
2021/07/31 01:30:14;;;;;;;;;22.00;20.33;;;;;;;;8724147;40;10263;-63
2021/07/31 01:36:20;;;;;;;;;35.00;31.33;;;;;;;;8722795;40;10738;-62
2021/07/31 01:42:22;;;;;;;;;37.67;32.67;;;;;;;;8722750;40;10147;-62
2021/07/31 01:48:25;;;;;;;;;39.33;38.00;;;;;;;;8722590;40;10798;-63
2021/07/31 01:54:28;;;;;;;;;36.67;35.00;;;;;;;;8723918;40;10594;-63
2021/07/31 02:00:31;;;;;;;;;34.00;33.33;;;;;;;;8723685;40;10502;-63
2021/07/31 02:06:40;;;;;;;;;33.33;31.67;;;;;;;;8722557;40;10691;-62
2021/07/31 02:12:44;;;;;;;;;29.67;29.67;;;;;;;;8723284;40;10813;-62
2021/07/31 02:18:52;;;;;;;;;42.33;36.33;;;;;;;;8721079;40;10304;-61
2021/07/31 02:24:57;;;;;;;;;36.33;34.33;;;;;;;;8720804;40;10231;-62
2021/07/31 02:31:19;;;;;;;;;33.00;30.67;;;;;;;;8715570;40;10238;-63
2021/07/31 02:37:24;;;;;;;;;32.00;31.67;;;;;;;;8723318;40;10111;-63
2021/07/31 02:43:29;;;;;;;;;36.00;33.00;;;;;;;;8720978;40;10036;-62
2021/07/31 02:49:32;;;;;;;;;37.67;35.33;;;;;;;;8721398;40;10126;-63
2021/07/31 02:55:34;;;;;;;;;37.00;32.33;;;;;;;;8724972;40;10602;-62
2021/07/31 03:01:37;;;;;;;;;35.33;33.67;;;;;;;;8723896;40;10342;-62
2021/07/31 03:07:40;;;;;;;;;38.00;34.33;;;;;;;;8725083;40;10193;-62
2021/07/31 03:13:42;;;;;;;;;35.67;32.00;;;;;;;;8724924;40;10795;-62
2021/07/31 03:19:44;;;;;;;;;37.00;34.33;;;;;;;;8724734;40;10404;-62
2021/07/31 03:25:59;;;;;;;;;40.33;34.67;;;;;;;;8724397;40;10535;-62
2021/07/31 03:32:02;;;;;;;;;36.67;36.33;;;;;;;;8723921;40;10073;-62
2021/07/31 03:38:04;;;;;;;;;30.33;28.33;;;;;;;;8726039;40;10223;-63
2021/07/31 03:44:07;;;;;;;;;38.00;33.67;;;;;;;;8725069;40;10106;-63
2021/07/31 03:50:14;;;;;;;;;34.33;34.00;;;;;;;;8724952;40;10937;-61
2021/07/31 03:56:28;;;;;;;;;38.00;33.00;;;;;;;;8723702;40;10704;-61
2021/07/31 04:02:35;;;;;;;;;32.75;31.25;;;;;;;;8725140;40;11366;-62
2021/07/31 04:08:39;;;;;;;;;28.33;27.33;;;;;;;;8723519;40;10707;-62
2021/07/31 04:14:59;;;;;;;;;34.00;33.75;;;;;;;;8724604;40;10992;-63
2021/07/31 04:21:08;;;;;;;;;31.00;30.00;;;;;;;;8724441;40;10733;-62
2021/07/31 04:27:13;;;;;;;;;31.00;29.75;;;;;;;;8724186;40;11003;-61
2021/07/31 04:33:15;;;;;;;;;35.50;31.25;;;;;;;;8722979;40;11136;-62
2021/07/31 04:39:19;;;;;;;;;23.50;23.00;;;;;;;;8724357;40;10947;-62
2021/07/31 04:45:21;;;;;;;;;27.00;25.00;;;;;;;;8724849;40;10991;-63
2021/07/31 04:51:23;;;;;;;;;31.25;28.00;;;;;;;;8723938;40;11068;-63
2021/07/31 04:57:25;;;;;;;;;29.25;28.75;;;;;;;;8723753;40;10797;-62
2021/07/31 05:03:28;;;;;;;;;27.25;25.00;;;;;;;;8723764;40;11531;-63
2021/07/31 05:09:30;;;;;;;;;20.25;19.75;;;;;;;;8723525;40;10976;-61
2021/07/31 05:15:38;;;;;;;;;27.25;26.00;;;;;;;;8723090;40;10969;-62
2021/07/31 05:21:40;;;;;;;;;21.00;20.25;;;;;;;;8723698;40;10979;-63
2021/07/31 05:27:42;;;;;;;;;27.00;21.75;;;;;;;;8724641;40;10781;-63
2021/07/31 05:33:44;;;;;;;;;23.75;22.50;;;;;;;;8724190;40;10602;-63
2021/07/31 05:39:46;;;;;;;;;23.75;22.50;;;;;;;;8723521;40;10846;-63
2021/07/31 05:45:49;;;;;;;;;23.00;21.50;;;;;;;;8723678;40;10774;-62
2021/07/31 05:51:51;;;;;;;;;21.75;19.75;;;;;;;;8721953;40;10732;-63
2021/07/31 05:57:53;;;;;;;;;22.25;22.25;;;;;;;;8722435;40;10695;-63
2021/07/31 06:03:56;;;;;;;;;22.75;22.75;;;;;;;;8722038;40;10643;-63
2021/07/31 06:09:59;;;;;;;;;25.00;25.00;;;;;;;;8722642;40;10644;-62
2021/07/31 06:16:01;;;;;;;;;23.00;21.00;;;;;;;;8721516;40;10565;-62
2021/07/31 06:22:03;;;;;;;;;25.50;24.25;;;;;;;;8723240;40;10812;-62
2021/07/31 06:28:05;;;;;;;;;27.50;26.25;;;;;;;;8722570;40;10579;-62
2021/07/31 06:34:08;;;;;;;;;23.75;23.25;;;;;;;;8725914;40;10670;-61
2021/07/31 06:40:11;;;;;;;;;25.00;23.75;;;;;;;;8725845;40;11410;-62
2021/07/31 06:46:14;;;;;;;;;23.75;23.75;;;;;;;;8725663;40;10526;-63
2021/07/31 06:52:17;;;;;;;;;26.50;23.25;;;;;;;;8725978;40;10563;-62
2021/07/31 06:58:20;;;;;;;;;22.50;21.25;;;;;;;;8726396;40;10571;-63
2021/07/31 07:04:22;;;;;;;;;19.75;18.00;;;;;;;;8725449;40;10486;-63
2021/07/31 07:10:24;;;;;;;;;25.25;25.25;;;;;;;;8725430;40;10542;-62
2021/07/31 07:16:27;;;;;;;;;23.00;22.75;;;;;;;;8725672;40;10572;-63
2021/07/31 07:22:29;;;;;;;;;23.25;23.00;;;;;;;;8733314;40;10736;-62
2021/07/31 07:28:31;;;;;;;;;23.00;22.50;;;;;;;;8724105;40;10936;-62
2021/07/31 07:34:39;;;;;;;;;22.75;21.00;;;;;;;;8725853;40;10698;-63
2021/07/31 07:40:41;;;;;;;;;21.75;21.75;;;;;;;;8724648;40;10762;-63
2021/07/31 07:46:43;;;;;;;;;20.50;20.25;;;;;;;;8724863;40;10578;-63
2021/07/31 07:52:45;;;;;;;;;19.75;18.75;;;;;;;;8725708;40;10600;-63
2021/07/31 07:58:53;;;;;;;;;24.75;23.00;;;;;;;;8724994;40;10478;-63
2021/07/31 08:04:55;;;;;;;;;19.50;19.25;;;;;;;;8725308;40;10577;-62
2021/07/31 08:10:57;;;;;;;;;21.50;21.25;;;;;;;;8725499;40;10573;-63
2021/07/31 08:16:59;;;;;;;;;22.00;20.25;;;;;;;;8724386;40;10557;-62
2021/07/31 08:23:02;;;;;;;;;19.00;19.00;;;;;;;;8724660;40;10671;-63
2021/07/31 08:29:04;;;;;;;;;20.50;18.50;;;;;;;;8724226;40;10597;-63
2021/07/31 08:35:06;;;;;;;;;26.25;24.00;;;;;;;;8724449;40;10622;-63
2021/07/31 08:41:08;;;;;;;;;19.75;19.75;;;;;;;;8724312;40;10474;-61
2021/07/31 08:47:11;;;;;;;;;21.50;20.50;;;;;;;;8723851;40;10786;-63
2021/07/31 08:53:13;;;;;;;;;25.00;23.50;;;;;;;;8724234;40;10565;-63
2021/07/31 08:59:15;;;;;;;;;21.00;19.00;;;;;;;;8724178;40;10465;-62
2021/07/31 09:05:35;;;;;;;;;19.00;14.75;;;;;;;;8724737;40;10593;-63
2021/07/31 09:11:59;;;;;;;;;25.00;22.50;;;;;;;;8723951;40;10750;-62
2021/07/31 09:18:29;;;;;;;;;19.00;18.75;;;;;;;;8724077;40;10628;-63
2021/07/31 09:24:34;;;;;;;;;22.50;18.75;;;;;;;;8722980;40;11813;-62
2021/07/31 09:30:49;;;;;;;;;26.50;23.25;;;;;;;;8723662;40;11050;-63
2021/07/31 09:37:07;;;;;;;;;24.25;24.25;;;;;;;;8724696;40;10823;-63
2021/07/31 09:43:17;;;;;;;;;23.00;19.25;;;;;;;;8724186;40;10805;-63
2021/07/31 09:49:22;;;;;;;;;20.50;20.50;;;;;;;;8723908;40;10576;-64
2021/07/31 09:55:24;;;;;;;;;22.25;21.25;;;;;;;;8724298;40;11389;-63
2021/07/31 10:01:28;;;;;;;;;22.75;20.25;;;;;;;;8724264;40;10543;-63
2021/07/31 10:07:30;;;;;;;;;26.25;22.00;;;;;;;;8726806;40;10595;-62
2021/07/31 10:13:34;;;;;;;;;20.00;17.75;;;;;;;;8727767;40;10537;-64
2021/07/31 10:19:46;;;;;;;;;21.75;19.75;;;;;;;;8718956;40;10563;-62
2021/07/31 10:26:08;;;;;;;;;20.00;20.00;;;;;;;;8726714;40;11255;-63
2021/07/31 10:32:19;;;;;;;;;26.75;21.25;;;;;;;;8726942;40;10549;-63
2021/07/31 10:38:32;;;;;;;;;22.25;21.25;;;;;;;;8726456;40;11410;-62
2021/07/31 10:44:34;;;;;;;;;20.75;20.75;;;;;;;;8726531;40;10754;-63
2021/07/31 10:50:38;;;;;;;;;26.25;21.75;;;;;;;;8728105;40;10803;-63
2021/07/31 10:56:55;;;;;;;;;28.25;24.00;;;;;;;;8717018;40;10511;-62
2021/07/31 11:03:03;;;;;;;;;22.00;18.75;;;;;;;;8725823;40;10567;-64
2021/07/31 11:09:10;;;;;;;;;23.25;22.25;;;;;;;;8724405;40;10857;-63
2021/07/31 11:15:12;;;;;;;;;18.75;18.75;;;;;;;;8725268;40;10660;-62
2021/07/31 11:21:14;;;;;;;;;26.50;23.75;;;;;;;;8726609;40;10588;-63
2021/07/31 11:27:17;;;;;;;;;18.00;17.75;;;;;;;;8726511;40;10568;-63
2021/07/31 11:33:25;;;;;;;;;32.25;26.00;;;;;;;;8724881;40;10591;-64
2021/07/31 11:39:27;;;;;;;;;25.00;23.25;;;;;;;;8726714;40;10596;-63
2021/07/31 11:45:30;;;;;;;;;22.00;22.00;;;;;;;;8725374;40;11262;-64
2021/07/31 11:51:33;;;;;;;;;21.50;20.50;;;;;;;;8725736;40;10603;-62
2021/07/31 11:57:35;;;;;;;;;30.00;28.00;;;;;;;;8725918;40;10480;-63
2021/07/31 12:03:41;;;;;;;;;23.00;23.00;;;;;;;;8726026;40;10742;-64
2021/07/31 12:10:10;;;;;;;;;24.25;23.25;;;;;;;;8725018;40;11103;-63
2021/07/31 12:16:13;;;;;;;;;24.50;24.00;;;;;;;;8726747;40;10591;-64
2021/07/31 12:22:22;;;;;;;;;24.00;22.00;;;;;;;;8724837;40;10505;-63
2021/07/31 12:28:40;;;;;;;;;24.25;24.00;;;;;;;;8723961;40;10564;-63
2021/07/31 12:34:42;;;;;;;;;27.25;27.25;;;;;;;;8724597;40;10590;-63
2021/07/31 12:40:45;;;;;;;;;25.00;23.75;;;;;;;;8724643;40;10537;-63
2021/07/31 12:46:48;;;;;;;;;23.00;23.00;;;;;;;;8725247;40;10814;-63
2021/07/31 12:52:50;;;;;;;;;25.25;24.50;;;;;;;;8723023;40;10494;-63
2021/07/31 12:58:52;;;;;;;;;26.75;25.75;;;;;;;;8724851;40;10643;-64
2021/07/31 13:04:55;;;;;;;;;26.50;26.50;;;;;;;;8723693;40;10642;-63
2021/07/31 13:10:57;;;;;;;;;27.25;27.25;;;;;;;;8723906;40;11119;-63
2021/07/31 13:16:59;;;;;;;;;25.50;25.25;;;;;;;;8724932;40;10562;-65
2021/07/31 13:23:02;;;;;;;;;28.00;25.00;;;;;;;;8724794;40;10624;-63
2021/07/31 13:29:04;;;;;;;;;34.75;29.25;;;;;;;;8723067;40;10638;-62
2021/07/31 13:35:06;;;;;;;;;25.00;23.25;;;;;;;;8723953;40;10550;-62
2021/07/31 13:41:09;;;;;;;;;23.00;21.50;;;;;;;;8724008;40;10568;-63
2021/07/31 13:47:11;;;;;;;;;28.00;26.50;;;;;;;;8723477;40;10486;-63
2021/07/31 13:53:13;;;;;;;;;29.25;29.00;;;;;;;;8722968;40;10816;-64
2021/07/31 13:59:20;;;;;;;;;26.25;24.25;;;;;;;;8723960;40;10542;-62
2021/07/31 14:05:22;;;;;;;;;25.25;24.75;;;;;;;;8723279;40;10749;-63
2021/07/31 14:11:25;;;;;;;;;23.25;23.00;;;;;;;;8720827;40;10728;-63
2021/07/31 14:17:28;;;;;;;;;23.25;23.25;;;;;;;;8722861;40;10575;-63
2021/07/31 14:23:30;;;;;;;;;27.50;27.25;;;;;;;;8722231;40;10558;-64
2021/07/31 14:29:32;;;;;;;;;29.25;27.50;;;;;;;;8723230;40;10584;-63
2021/07/31 14:35:35;;;;;;;;;29.00;28.00;;;;;;;;8722548;40;10503;-62
2021/07/31 14:41:37;;;;;;;;;26.00;25.75;;;;;;;;8722131;40;10550;-62
2021/07/31 14:47:41;;;;;;;;;30.75;29.50;;;;;;;;8722186;40;10552;-64
2021/07/31 14:53:43;;;;;;;;;28.75;27.75;;;;;;;;8724606;40;10630;-63
2021/07/31 14:59:45;;;;;;;;;30.00;26.00;;;;;;;;8725497;40;11142;-63
2021/07/31 15:05:47;;;;;;;;;21.75;19.75;;;;;;;;8726787;40;10556;-63
2021/07/31 15:11:49;;;;;;;;;23.75;22.00;;;;;;;;8725279;40;10728;-62
2021/07/31 15:17:53;;;;;;;;;27.25;24.50;;;;;;;;8732692;40;11160;-63
2021/07/31 15:23:56;;;;;;;;;27.50;24.75;;;;;;;;8724770;40;10542;-63
2021/07/31 15:29:58;;;;;;;;;28.25;27.50;;;;;;;;8725096;40;10581;-63
2021/07/31 15:36:01;;;;;;;;;27.00;25.00;;;;;;;;8725288;40;10787;-63
2021/07/31 15:42:04;;;;;;;;;18.75;18.75;;;;;;;;8724087;40;10677;-63
2021/07/31 15:48:06;;;;;;;;;21.75;20.25;;;;;;;;8726709;40;10871;-63
2021/07/31 15:54:08;;;;;;;;;19.75;17.25;;;;;;;;8724905;40;10461;-62
2021/07/31 16:00:11;;;;;;;;;18.50;16.75;;;;;;;;8724570;40;10896;-62
2021/07/31 16:06:14;;;;;;;;;20.25;18.25;;;;;;;;8724353;40;10558;-62
2021/07/31 16:12:19;;;;;;;;;19.25;18.00;;;;;;;;8725053;40;10548;-64
2021/07/31 16:18:21;;;;;;;;;30.00;26.25;;;;;;;;8725706;40;10560;-63
2021/07/31 16:24:23;;;;;;;;;17.50;15.75;;;;;;;;8723990;40;10675;-63
2021/07/31 16:30:26;;;;;;;;;24.00;22.50;;;;;;;;8725075;40;11230;-63
2021/07/31 16:36:28;;;;;;;;;22.00;20.75;;;;;;;;8723935;40;10620;-63
2021/07/31 16:42:30;;;;;;;;;21.00;19.00;;;;;;;;8723854;40;10625;-63
2021/07/31 16:48:33;;;;;;;;;22.25;21.50;;;;;;;;8725083;40;10860;-62
2021/07/31 16:54:35;;;;;;;;;25.25;22.50;;;;;;;;8724041;40;10475;-64
2021/07/31 17:00:41;;;;;;;;;29.75;23.75;;;;;;;;8723788;40;10640;-63
2021/07/31 17:06:44;;;;;;;;;22.25;22.25;;;;;;;;8723368;40;11074;-62
2021/07/31 17:12:46;;;;;;;;;24.50;24.50;;;;;;;;8723176;40;10572;-63
2021/07/31 17:18:48;;;;;;;;;20.75;17.75;;;;;;;;8723708;40;10563;-64
2021/07/31 17:24:51;;;;;;;;;22.25;20.50;;;;;;;;8723177;40;10581;-63
2021/07/31 17:30:53;;;;;;;;;23.25;20.25;;;;;;;;8722117;40;10598;-62
2021/07/31 17:37:00;;;;;;;;;25.25;22.50;;;;;;;;8723175;40;11195;-62
2021/07/31 17:43:02;;;;;;;;;24.50;20.75;;;;;;;;8723265;40;10629;-63
2021/07/31 17:49:06;;;;;;;;;24.00;21.25;;;;;;;;8723175;40;10743;-63
2021/07/31 17:55:09;;;;;;;;;32.00;25.50;;;;;;;;8723535;40;10705;-63
2021/07/31 18:01:11;;;;;;;;;28.50;26.75;;;;;;;;8723854;40;10540;-63
2021/07/31 18:07:15;;;;;;;;;30.25;28.50;;;;;;;;8721842;40;10676;-63
2021/07/31 18:13:17;;;;;;;;;28.25;26.50;;;;;;;;8722410;40;10556;-63
2021/07/31 18:19:19;;;;;;;;;30.25;28.25;;;;;;;;8722593;40;10629;-63
2021/07/31 18:25:21;;;;;;;;;41.25;37.25;;;;;;;;8721772;40;10577;-62
2021/07/31 18:31:23;;;;;;;;;45.50;39.00;;;;;;;;8726782;40;10996;-62
2021/07/31 18:37:25;;;;;;;;;35.50;29.25;;;;;;;;8724961;40;10898;-63
2021/07/31 18:43:27;;;;;;;;;38.25;35.25;;;;;;;;8726468;40;10624;-62
2021/07/31 18:49:30;;;;;;;;;31.50;30.75;;;;;;;;8727011;40;10679;-63
2021/07/31 18:55:32;;;;;;;;;30.00;26.75;;;;;;;;8723919;40;10584;-63
2021/07/31 19:01:34;;;;;;;;;36.25;33.75;;;;;;;;8726018;40;10677;-63
2021/07/31 19:07:36;;;;;;;;;31.50;30.25;;;;;;;;8726517;40;10608;-62
2021/07/31 19:13:40;;;;;;;;;38.25;35.00;;;;;;;;8725221;40;10649;-62
2021/07/31 19:19:42;;;;;;;;;25.00;23.00;;;;;;;;8724530;40;10572;-63
2021/07/31 19:25:45;;;;;;;;;22.50;21.50;;;;;;;;8733456;40;10700;-62
2021/07/31 19:31:47;;;;;;;;;21.00;20.75;;;;;;;;8725437;40;11597;-64
2021/07/31 19:37:49;;;;;;;;;29.50;24.75;;;;;;;;8725527;40;10616;-62
2021/07/31 19:43:51;;;;;;;;;21.25;21.25;;;;;;;;8725724;40;10542;-62
2021/07/31 19:49:54;;;;;;;;;28.00;24.50;;;;;;;;8725940;40;10697;-63
2021/07/31 19:55:57;;;;;;;;;20.50;20.50;;;;;;;;8724170;40;10674;-64
2021/07/31 20:02:00;;;;;;;;;20.50;20.25;;;;;;;;8724481;40;10495;-63
2021/07/31 20:08:02;;;;;;;;;18.75;18.75;;;;;;;;8725704;40;10534;-63
2021/07/31 20:14:04;;;;;;;;;22.50;21.00;;;;;;;;8724547;40;11244;-61
2021/07/31 20:20:09;;;;;;;;;21.75;20.50;;;;;;;;8724649;40;10581;-62
2021/07/31 20:26:11;;;;;;;;;16.50;16.50;;;;;;;;8720227;40;10536;-62
2021/07/31 20:32:14;;;;;;;;;19.50;19.00;;;;;;;;8724331;40;10690;-62
2021/07/31 20:38:18;;;;;;;;;20.00;18.50;;;;;;;;8724398;40;10632;-62
2021/07/31 20:44:20;;;;;;;;;16.00;14.25;;;;;;;;8723556;40;10551;-61
2021/07/31 20:50:23;;;;;;;;;17.75;17.75;;;;;;;;8723587;40;10873;-63
2021/07/31 20:56:26;;;;;;;;;15.25;15.25;;;;;;;;8724864;40;10533;-63
2021/07/31 21:02:28;;;;;;;;;15.25;15.00;;;;;;;;8724883;40;10617;-62
2021/07/31 21:08:31;;;;;;;;;18.00;15.00;;;;;;;;8724720;40;10826;-62
2021/07/31 21:14:33;;;;;;;;;18.00;17.25;;;;;;;;8723457;40;10598;-63
2021/07/31 21:20:36;;;;;;;;;14.00;14.00;;;;;;;;8723858;40;10771;-62
2021/07/31 21:26:38;;;;;;;;;19.25;15.75;;;;;;;;8722474;40;11118;-62
2021/07/31 21:32:41;;;;;;;;;19.00;17.75;;;;;;;;8725100;40;10534;-60
2021/07/31 21:38:43;;;;;;;;;21.25;20.00;;;;;;;;8723003;40;10702;-62
2021/07/31 21:44:46;;;;;;;;;16.75;16.25;;;;;;;;8724052;40;10601;-62
2021/07/31 21:50:48;;;;;;;;;16.50;16.50;;;;;;;;8724027;40;10644;-62
2021/07/31 21:56:51;;;;;;;;;19.25;19.25;;;;;;;;8722584;40;10490;-63
2021/07/31 22:02:54;;;;;;;;;20.25;19.50;;;;;;;;8722824;40;10669;-62
2021/07/31 22:08:57;;;;;;;;;20.00;18.00;;;;;;;;8723147;40;10708;-63
2021/07/31 22:14:59;;;;;;;;;16.25;16.25;;;;;;;;8723134;40;10492;-62
2021/07/31 22:21:01;;;;;;;;;14.25;14.00;;;;;;;;8717729;40;10560;-61
2021/07/31 22:27:04;;;;;;;;;17.50;17.25;;;;;;;;8722206;40;10602;-62
2021/07/31 22:33:06;;;;;;;;;18.00;17.00;;;;;;;;8720982;40;10800;-62
2021/07/31 22:39:09;;;;;;;;;18.25;16.50;;;;;;;;8721510;40;10491;-62
2021/07/31 22:45:12;;;;;;;;;22.00;19.25;;;;;;;;8728687;40;11206;-62
2021/07/31 22:51:17;;;;;;;;;20.00;20.00;;;;;;;;8722923;40;10802;-63
2021/07/31 22:57:19;;;;;;;;;21.75;19.75;;;;;;;;8721790;40;10781;-63
2021/07/31 23:03:22;;;;;;;;;22.00;20.50;;;;;;;;8722420;40;10783;-61
2021/07/31 23:09:24;;;;;;;;;22.25;22.25;;;;;;;;8722744;40;10852;-62
2021/07/31 23:15:26;;;;;;;;;20.75;17.25;;;;;;;;8725336;40;11114;-62
2021/07/31 23:21:29;;;;;;;;;21.75;19.25;;;;;;;;8723878;40;10732;-62
2021/07/31 23:27:31;;;;;;;;;24.50;21.50;;;;;;;;8724515;40;10745;-62
2021/07/31 23:33:33;;;;;;;;;19.75;18.50;;;;;;;;8724349;40;11058;-62
2021/07/31 23:39:35;;;;;;;;;24.75;23.25;;;;;;;;8724615;40;10973;-62
2021/07/31 23:45:38;;;;;;;;;21.50;20.25;;;;;;;;8725749;40;10774;-61
2021/07/31 23:51:40;;;;;;;;;27.75;25.25;;;;;;;;8725036;40;10868;-62
2021/07/31 23:57:43;;;;;;;;;26.75;24.50;;;;;;;;8724865;40;10864;-62
